createdAt,value
2019-01-05T00:01:12.088Z,24.47
2019-01-05T00:04:11.375Z,24.97
2019-01-05T00:07:05.485Z,23.70
2019-01-05T00:10:05.146Z,23.93
2019-01-05T00:13:05.310Z,23.73
2019-01-05T00:16:07.405Z,24.37
2019-01-05T00:19:06.770Z,23.63
2019-01-05T00:22:02.569Z,25.17
2019-01-05T00:25:02.136Z,23.43
2019-01-05T00:28:01.474Z,25.57
2019-01-05T00:31:01.641Z,24.97
2019-01-05T00:34:01.785Z,23.40
2019-01-05T00:37:02.003Z,24.60
2019-01-05T00:39:55.257Z,24.23
2019-01-05T00:42:57.510Z,24.00
2019-01-05T00:45:56.972Z,22.87
2019-01-05T00:48:56.738Z,24.20
2019-01-05T00:51:56.436Z,23.87
2019-01-05T00:54:55.712Z,23.67
2019-01-05T00:57:55.050Z,23.50
2019-01-05T01:00:55.245Z,25.53
2019-01-05T01:03:55.581Z,23.87
2019-01-05T01:06:55.781Z,22.80
2019-01-05T01:09:55.967Z,23.23
2019-01-05T01:12:55.997Z,23.47
2019-01-05T01:15:56.094Z,23.43
2019-01-05T01:18:56.262Z,23.87
2019-01-05T01:21:56.490Z,24.00
2019-01-05T01:24:58.972Z,24.17
2019-01-05T01:27:58.387Z,23.70
2019-01-05T01:30:54.022Z,23.53
2019-01-05T01:33:53.567Z,24.57
2019-01-05T01:36:40.995Z,24.03
2019-01-05T01:39:30.063Z,24.23
2019-01-05T01:42:29.983Z,23.43
2019-01-05T01:45:29.182Z,22.87
2019-01-05T01:48:35.526Z,24.43
2019-01-05T01:51:35.777Z,24.47
2019-01-05T01:54:38.312Z,23.57
2019-01-05T01:57:38.410Z,23.53
2019-01-05T02:00:44.702Z,23.63
2019-01-05T02:03:34.551Z,23.43
2019-01-05T02:06:33.951Z,23.40
2019-01-05T02:09:34.096Z,24.07
2019-01-05T02:12:34.200Z,24.80
2019-01-05T02:15:33.560Z,24.03
2019-01-05T02:18:59.725Z,22.30
2019-01-05T02:21:59.166Z,25.43
2019-01-05T02:25:21.685Z,23.70
2019-01-05T02:28:21.479Z,23.70
2019-01-05T02:31:21.648Z,25.57
2019-01-05T02:34:26.856Z,25.80
2019-01-05T02:37:26.331Z,25.07
2019-01-05T02:40:25.684Z,25.07
2019-01-05T02:43:25.819Z,24.83
2019-01-05T02:46:25.948Z,25.83
2019-01-05T02:49:31.517Z,23.30
2019-01-05T02:52:31.446Z,24.93
2019-01-05T02:55:34.507Z,26.60
2019-01-05T02:58:34.027Z,27.57
2019-01-05T03:01:38.026Z,25.07
2019-01-05T03:04:44.134Z,26.43
2019-01-05T03:07:44.214Z,27.30
2019-01-05T03:10:44.434Z,28.33
2019-01-05T03:13:47.428Z,26.60
2019-01-05T03:16:46.991Z,27.23
2019-01-05T03:19:52.996Z,25.33
2019-01-05T03:23:23.603Z,26.67
2019-01-05T03:26:23.399Z,27.67
2019-01-05T03:29:21.055Z,27.13
2019-01-05T03:32:16.497Z,29.47
2019-01-05T03:35:16.533Z,28.20
2019-01-05T03:38:16.765Z,28.17
2019-01-05T03:41:16.818Z,27.70
2019-01-05T03:44:11.822Z,26.87
2019-01-05T03:47:12.373Z,28.13
2019-01-05T03:50:12.823Z,28.83
2019-01-05T03:53:12.874Z,28.80
2019-01-05T03:56:16.845Z,28.20
2019-01-05T03:59:16.386Z,28.97
2019-01-05T04:02:42.470Z,28.47
2019-01-05T04:05:41.918Z,28.43
2019-01-05T04:08:44.071Z,29.30
2019-01-05T04:11:49.434Z,29.83
2019-01-05T04:14:48.910Z,29.33
2019-01-05T04:18:06.178Z,29.03
2019-01-05T04:21:06.246Z,29.13
2019-01-05T04:24:06.607Z,29.53
2019-01-05T04:29:46.737Z,30.47
2019-01-05T04:32:46.238Z,30.50
2019-01-05T04:35:52.260Z,30.10
2019-01-05T04:38:51.745Z,30.37
2019-01-05T04:41:54.737Z,30.37
2019-01-05T04:44:51.640Z,30.00
2019-01-05T04:47:48.909Z,31.30
2019-01-05T04:50:50.561Z,30.73
2019-01-05T04:54:18.233Z,31.37
2019-01-05T04:57:24.654Z,29.37
2019-01-05T05:00:24.764Z,31.17
2019-01-05T05:03:24.204Z,29.53
2019-01-05T05:06:19.953Z,30.23
2019-01-05T05:09:19.851Z,29.33
2019-01-05T05:12:19.170Z,29.83
2019-01-05T05:15:19.213Z,29.53
2019-01-05T05:18:48.716Z,28.67
2019-01-05T05:21:44.346Z,29.80
2019-01-05T05:24:40.161Z,28.23
2019-01-05T05:27:39.855Z,28.53
2019-01-05T05:30:38.114Z,27.77
2019-01-05T05:33:34.271Z,28.73
2019-01-05T05:36:36.432Z,28.17
2019-01-05T05:39:35.950Z,27.47
2019-01-05T05:42:33.880Z,27.73
2019-01-05T05:45:40.254Z,28.03
2019-01-05T05:48:41.124Z,27.73
2019-01-05T05:51:40.865Z,26.93
2019-01-05T05:54:40.145Z,27.10
2019-01-05T05:57:42.926Z,28.20
2019-01-05T06:00:42.447Z,28.00
2019-01-05T06:03:42.565Z,27.87
2019-01-05T06:06:41.903Z,27.93
2019-01-05T06:09:39.577Z,29.07
2019-01-05T06:12:39.094Z,26.23
2019-01-05T06:15:42.406Z,27.17
2019-01-05T06:18:45.417Z,26.73
2019-01-05T06:21:44.942Z,26.23
2019-01-05T06:24:44.825Z,26.93
2019-01-05T06:27:50.882Z,25.83
2019-01-05T06:30:50.361Z,26.53
2019-01-05T06:33:50.491Z,24.80
2019-01-05T06:36:52.949Z,24.50
2019-01-05T06:39:52.220Z,25.43
2019-01-05T06:42:51.553Z,25.60
2019-01-05T06:45:51.075Z,25.10
2019-01-05T06:48:51.249Z,24.03
2019-01-05T06:51:50.497Z,24.93
2019-01-05T06:54:50.666Z,24.07
2019-01-05T06:57:50.831Z,23.53
2019-01-05T07:00:50.991Z,24.90
2019-01-05T07:03:50.313Z,23.60
2019-01-05T07:06:51.636Z,23.70
2019-01-05T07:09:51.514Z,23.03
2019-01-05T07:12:50.874Z,24.10
2019-01-05T07:15:53.232Z,25.10
2019-01-05T07:18:53.283Z,23.37
2019-01-05T07:21:52.714Z,22.57
2019-01-05T07:24:51.971Z,22.80
2019-01-05T07:27:51.362Z,21.00
2019-01-05T07:30:47.815Z,22.13
2019-01-05T07:33:47.705Z,20.77
2019-01-05T07:36:47.804Z,19.83
2019-01-05T07:39:47.183Z,21.63
2019-01-05T07:42:53.343Z,21.60
2019-01-05T07:45:56.522Z,21.37
2019-01-05T07:48:56.600Z,20.17
2019-01-05T07:51:55.933Z,20.30
2019-01-05T07:54:57.601Z,18.93
2019-01-05T07:58:00.276Z,18.83
2019-01-05T08:00:54.001Z,18.53
2019-01-05T08:03:53.804Z,19.33
2019-01-05T08:06:55.426Z,18.67
2019-01-05T08:09:56.408Z,18.70
2019-01-05T08:13:00.397Z,18.43
2019-01-05T08:16:02.862Z,17.70
2019-01-05T08:19:02.750Z,18.13
2019-01-05T08:22:03.029Z,18.40
2019-01-05T08:25:09.331Z,16.57
2019-01-05T08:28:08.614Z,16.80
2019-01-05T08:31:08.081Z,17.03
2019-01-05T08:34:08.172Z,17.90
2019-01-05T08:37:08.071Z,16.23
2019-01-05T08:40:08.182Z,15.53
2019-01-05T08:43:04.686Z,14.50
2019-01-05T08:46:04.649Z,15.30
2019-01-05T08:49:11.584Z,16.80
2019-01-05T08:52:16.657Z,15.30
2019-01-05T08:55:21.874Z,14.97
2019-01-05T08:58:21.194Z,13.77
2019-01-05T09:01:24.190Z,15.63
2019-01-05T09:04:23.671Z,14.93
2019-01-05T09:07:20.764Z,15.03
2019-01-05T09:10:20.187Z,15.17
2019-01-05T09:13:20.420Z,15.10
2019-01-05T09:16:19.779Z,14.83
2019-01-05T09:19:22.994Z,14.67
2019-01-05T09:22:23.251Z,14.03
2019-01-05T09:25:23.474Z,13.30
2019-01-05T09:28:23.589Z,14.43
2019-01-05T09:31:29.689Z,13.57
2019-01-05T09:34:29.119Z,13.50
2019-01-05T09:37:31.649Z,12.90
2019-01-05T09:40:31.410Z,13.10
2019-01-05T09:43:57.527Z,12.03
2019-01-05T09:46:56.873Z,13.00
2019-01-05T09:49:57.566Z,12.57
2019-01-05T09:53:01.929Z,13.27
2019-01-05T09:56:01.053Z,12.57
2019-01-05T09:59:00.687Z,12.93
2019-01-05T10:02:28.246Z,12.37
2019-01-05T10:05:31.310Z,11.20
2019-01-05T10:08:36.505Z,12.10
2019-01-05T10:11:36.036Z,11.43
2019-01-05T10:14:40.738Z,12.47
2019-01-05T10:17:37.602Z,12.07
2019-01-05T10:20:37.702Z,12.23
2019-01-05T10:23:36.646Z,11.53
2019-01-05T10:26:36.222Z,12.13
2019-01-05T10:29:31.182Z,13.07
2019-01-05T10:32:31.097Z,12.73
2019-01-05T10:35:30.957Z,11.97
2019-01-05T10:38:30.175Z,12.57
2019-01-05T10:41:30.303Z,12.13
2019-01-05T10:44:30.506Z,13.30
2019-01-05T10:47:29.904Z,12.37
2019-01-05T10:50:36.082Z,12.37
2019-01-05T10:53:35.366Z,12.20
2019-01-05T10:56:35.522Z,12.90
2019-01-05T10:59:37.686Z,12.63
2019-01-05T11:02:37.926Z,13.00
2019-01-05T11:05:38.073Z,13.03
2019-01-05T11:08:43.506Z,12.00
2019-01-05T11:11:43.502Z,12.93
2019-01-05T11:14:42.816Z,12.80
2019-01-05T11:18:08.941Z,12.60
2019-01-05T11:21:35.180Z,11.87
2019-01-05T11:24:36.118Z,12.00
2019-01-05T11:27:35.756Z,10.93
2019-01-05T11:30:37.872Z,12.07
2019-01-05T11:33:31.894Z,11.93
2019-01-05T11:36:31.433Z,10.97
2019-01-05T11:39:34.606Z,11.53
2019-01-05T11:42:32.165Z,11.53
2019-01-05T11:45:32.385Z,11.40
2019-01-05T11:48:33.373Z,10.97
2019-01-05T11:51:32.862Z,11.07
2019-01-05T11:54:33.003Z,11.03
2019-01-05T11:57:32.331Z,10.73
2019-01-05T12:00:35.447Z,11.17
2019-01-05T12:03:40.779Z,11.13
2019-01-05T12:06:40.355Z,11.70
2019-01-05T12:09:39.699Z,11.03
2019-01-05T12:12:39.931Z,11.17
2019-01-05T12:15:40.052Z,10.93
2019-01-05T12:18:32.166Z,12.53
2019-01-05T12:21:34.740Z,13.53
2019-01-05T12:24:34.782Z,13.53
2019-01-05T12:27:34.295Z,14.03
2019-01-05T12:30:34.531Z,14.10
2019-01-05T12:33:37.657Z,14.33
2019-01-05T12:36:36.941Z,15.37
2019-01-05T12:39:35.794Z,15.10
2019-01-05T12:42:35.215Z,14.60
2019-01-05T12:45:35.207Z,15.57
2019-01-05T12:48:35.414Z,15.43
2019-01-05T12:51:34.659Z,14.30
2019-01-05T12:54:33.972Z,14.80
2019-01-05T12:57:33.266Z,15.13
2019-01-05T13:00:33.540Z,16.87
2019-01-05T13:08:11.056Z,16.00
2019-01-05T13:11:14.324Z,16.27
2019-01-05T13:14:20.012Z,16.10
2019-01-05T13:17:19.557Z,15.43
2019-01-05T13:20:18.814Z,15.60
2019-01-05T13:23:18.200Z,15.70
2019-01-05T13:26:41.566Z,15.17
2019-01-05T13:29:41.787Z,15.43
2019-01-05T13:32:44.226Z,15.33
2019-01-05T13:35:49.772Z,14.27
2019-01-05T13:38:52.907Z,15.03
2019-01-05T13:41:53.162Z,15.23
2019-01-05T13:44:53.252Z,14.00
2019-01-05T13:47:56.215Z,13.67
2019-01-05T13:50:55.777Z,15.17
2019-01-05T13:53:54.818Z,14.37
2019-01-05T13:56:54.337Z,15.43
2019-01-05T13:59:53.595Z,15.27
2019-01-05T14:02:54.751Z,14.83
2019-01-05T14:05:54.309Z,14.20
2019-01-05T14:08:56.014Z,13.83
2019-01-05T14:11:58.860Z,13.47
2019-01-05T14:14:59.027Z,14.57
2019-01-05T14:17:51.853Z,15.60
2019-01-05T14:20:54.702Z,15.53
2019-01-05T14:23:54.087Z,14.03
2019-01-05T14:26:53.365Z,14.43
2019-01-05T14:29:58.735Z,14.60
2019-01-05T14:32:48.070Z,15.63
2019-01-05T14:35:47.326Z,14.80
2019-01-05T14:38:45.471Z,15.20
2019-01-05T14:41:32.674Z,15.23
2019-01-05T14:44:19.831Z,14.27
2019-01-05T14:47:13.113Z,15.27
2019-01-05T14:50:03.029Z,14.00
2019-01-05T14:52:53.004Z,14.97
2019-01-05T14:55:40.379Z,15.17
2019-01-05T14:58:26.196Z,15.67
2019-01-05T15:01:16.177Z,16.23
2019-01-05T15:04:01.758Z,14.43
2019-01-05T15:06:48.556Z,14.83
2019-01-05T15:09:34.293Z,15.83
2019-01-05T15:12:27.226Z,15.57
2019-01-05T15:15:26.499Z,14.73
2019-01-05T15:18:12.085Z,14.53
2019-01-05T15:20:54.921Z,15.10
2019-01-05T15:23:36.444Z,14.47
2019-01-05T15:26:22.378Z,15.80
2019-01-05T15:29:09.561Z,15.67
2019-01-05T15:31:55.219Z,16.37
2019-01-05T15:34:41.005Z,17.07
2019-01-05T15:37:26.828Z,16.20
2019-01-05T15:40:14.004Z,17.03
2019-01-05T15:42:55.194Z,15.53
2019-01-05T15:45:47.098Z,16.53
2019-01-05T15:48:32.682Z,15.70
2019-01-05T15:51:18.271Z,15.20
2019-01-05T15:54:17.374Z,15.53
2019-01-05T15:57:03.131Z,15.47
2019-01-05T15:59:50.456Z,15.27
2019-01-05T16:02:37.086Z,16.70
2019-01-05T16:05:24.303Z,15.60
2019-01-05T16:08:10.012Z,16.50
2019-01-05T16:11:02.908Z,16.40
2019-01-05T16:13:56.207Z,16.60
2019-01-05T16:16:52.073Z,16.13
2019-01-05T16:19:37.781Z,15.47
2019-01-05T16:22:23.389Z,16.03
2019-01-05T16:25:14.296Z,15.57
2019-01-05T16:28:11.409Z,16.27
2019-01-05T16:31:07.461Z,15.30
2019-01-05T16:33:52.268Z,15.40
2019-01-05T16:36:51.197Z,15.40
2019-01-05T16:39:50.653Z,15.60
2019-01-05T16:42:38.077Z,15.87
2019-01-05T16:45:43.510Z,15.30
2019-01-05T16:48:29.408Z,15.33
2019-01-05T16:51:15.250Z,17.17
2019-01-05T16:54:02.407Z,15.63
2019-01-05T16:56:48.292Z,16.13
2019-01-05T16:59:50.389Z,16.47
2019-01-05T17:02:32.117Z,16.27
2019-01-05T17:05:31.174Z,16.23
2019-01-05T17:08:18.507Z,16.13
2019-01-05T17:11:16.817Z,16.50
2019-01-05T17:14:13.195Z,15.73
2019-01-05T17:17:04.878Z,15.67
2019-01-05T17:19:50.480Z,16.80
2019-01-05T17:22:49.879Z,16.40
2019-01-05T17:25:35.662Z,15.93
2019-01-05T17:28:25.753Z,16.30
2019-01-05T17:31:11.760Z,15.83
2019-01-05T17:34:16.974Z,16.13
2019-01-05T17:37:02.762Z,15.93
2019-01-05T17:39:48.567Z,16.27
2019-01-05T17:42:34.181Z,16.20
2019-01-05T17:45:31.831Z,16.20
2019-01-05T17:48:21.840Z,15.67
2019-01-05T17:51:07.480Z,15.77
2019-01-05T17:54:05.928Z,15.50
2019-01-05T17:56:52.932Z,16.43
2019-01-05T17:59:38.583Z,15.13
2019-01-05T18:02:24.204Z,16.57
2019-01-05T18:05:09.904Z,15.77
2019-01-05T18:07:53.043Z,16.87
2019-01-05T18:13:58.870Z,16.53
2019-01-05T18:16:58.915Z,16.97
2019-01-05T18:20:04.833Z,17.07
2019-01-05T18:23:05.288Z,16.80
2019-01-05T18:25:52.728Z,16.40
2019-01-05T18:28:52.239Z,17.00
2019-01-05T18:31:33.385Z,17.00
2019-01-05T18:34:33.528Z,17.67
2019-01-05T18:37:37.151Z,17.43
2019-01-05T18:40:37.216Z,17.40
2019-01-05T18:43:37.614Z,17.77
2019-01-05T18:46:42.782Z,17.70
2019-01-05T18:49:42.313Z,16.10
2019-01-05T18:52:41.664Z,18.03
2019-01-05T18:55:41.188Z,17.67
2019-01-05T18:58:46.302Z,18.70
2019-01-05T19:01:45.770Z,18.90
2019-01-05T19:04:42.373Z,17.47
2019-01-05T19:07:42.254Z,18.47
2019-01-05T19:10:41.706Z,17.47
2019-01-05T19:13:39.811Z,18.00
2019-01-05T19:16:39.750Z,18.50
2019-01-05T19:19:32.939Z,17.20
2019-01-05T19:22:35.988Z,18.00
2019-01-05T19:25:38.273Z,18.97
2019-01-05T19:28:38.506Z,17.83
2019-01-05T19:31:38.850Z,15.97
2019-01-05T19:34:38.469Z,16.53
2019-01-05T19:37:38.522Z,15.83
2019-01-05T19:40:38.521Z,16.87
2019-01-05T19:43:37.980Z,17.37
2019-01-05T19:46:37.403Z,17.33
2019-01-05T19:49:31.169Z,16.27
2019-01-05T19:52:30.876Z,16.00
2019-01-05T19:55:31.228Z,15.83
2019-01-05T19:58:31.455Z,15.97
2019-01-05T20:01:37.419Z,15.97
2019-01-05T20:04:36.679Z,18.00
2019-01-05T20:07:39.685Z,17.80
2019-01-05T20:10:39.008Z,17.83
2019-01-05T20:13:39.264Z,16.60
2019-01-05T20:16:36.602Z,15.63
2019-01-05T20:19:36.740Z,17.83
2019-01-05T20:22:24.046Z,16.27
2019-01-05T20:25:23.685Z,16.50
2019-01-05T20:28:10.970Z,15.80
2019-01-05T20:30:56.553Z,16.63
2019-01-05T20:33:58.671Z,16.17
2019-01-05T20:36:54.844Z,18.13
2019-01-05T20:39:40.744Z,16.83
2019-01-05T20:42:30.420Z,15.90
2019-01-05T20:45:36.580Z,17.27
2019-01-05T20:48:24.765Z,18.20
2019-01-05T20:51:08.650Z,17.03
2019-01-05T20:54:01.682Z,17.67
2019-01-05T20:56:56.865Z,17.87
2019-01-05T20:59:44.823Z,17.77
2019-01-05T21:02:31.326Z,17.77
2019-01-05T21:05:19.014Z,26.43
2019-01-05T21:08:18.184Z,19.23
2019-01-05T21:11:02.861Z,17.97
2019-01-05T21:13:46.782Z,17.37
2019-01-05T21:16:32.614Z,19.50
2019-01-05T21:19:31.954Z,19.07
2019-01-05T21:22:31.282Z,19.30
2019-01-05T21:25:31.179Z,18.47
2019-01-05T21:28:31.423Z,18.33
2019-01-05T21:31:30.696Z,18.70
2019-01-05T21:34:34.007Z,18.63
2019-01-05T21:37:33.257Z,19.77
2019-01-05T21:40:13.552Z,18.37
2019-01-05T21:43:13.678Z,19.33
2019-01-05T21:46:14.239Z,18.10
2019-01-05T21:49:13.457Z,17.73
2019-01-05T21:52:12.751Z,18.27
2019-01-05T21:55:05.775Z,17.80
2019-01-05T21:58:05.449Z,18.30
2019-01-05T22:01:05.308Z,17.60
2019-01-05T22:04:05.379Z,18.00
2019-01-05T22:07:11.412Z,18.17
2019-01-05T22:10:03.830Z,17.60
2019-01-05T22:13:10.190Z,17.87
2019-01-05T22:16:10.382Z,17.60
2019-01-05T22:19:09.648Z,17.90
2019-01-05T22:22:15.877Z,18.87
2019-01-05T22:25:18.693Z,16.97
2019-01-05T22:28:18.271Z,16.50
2019-01-05T22:31:17.654Z,17.50
2019-01-05T22:34:24.265Z,16.77
2019-01-05T22:37:24.083Z,16.73
2019-01-05T22:40:26.502Z,16.83
2019-01-05T22:43:29.538Z,16.97
2019-01-05T22:46:28.907Z,16.53
2019-01-05T22:49:31.250Z,16.77
2019-01-05T22:52:33.333Z,17.60
2019-01-05T22:55:32.921Z,17.80
2019-01-05T22:58:32.962Z,15.80
2019-01-05T23:01:35.273Z,16.93
2019-01-05T23:04:34.500Z,16.13
2019-01-05T23:07:34.717Z,15.47
2019-01-05T23:10:33.897Z,15.83
2019-01-05T23:13:33.266Z,16.00
2019-01-05T23:16:33.420Z,15.17
2019-01-05T23:19:36.501Z,16.47
2019-01-05T23:22:36.608Z,15.17
2019-01-05T23:25:37.007Z,16.40
2019-01-05T23:28:36.851Z,15.80
2019-01-05T23:31:36.124Z,16.17
2019-01-05T23:34:39.112Z,16.57
2019-01-05T23:37:38.562Z,14.97
2019-01-05T23:40:41.581Z,15.13
2019-01-05T23:43:40.977Z,15.10
2019-01-05T23:46:44.253Z,15.70
2019-01-05T23:49:49.980Z,16.07
2019-01-05T23:56:38.231Z,16.20
2019-01-05T23:59:37.557Z,15.50
